sensor_id;sensor_type;location;lat;lon;timestamp;P1;durP1;ratioP1;P2;durP2;ratioP2
39848;SDS011;25518;47.878;15.914;2023-08-21T00:00:19;8.33;;;5.80;;
39848;SDS011;25518;47.878;15.914;2023-08-21T00:03:10;8.35;;;6.28;;
39848;SDS011;25518;47.878;15.914;2023-08-21T00:05:59;9.35;;;6.53;;
39848;SDS011;25518;47.878;15.914;2023-08-21T00:08:49;8.35;;;5.72;;
39848;SDS011;25518;47.878;15.914;2023-08-21T00:11:39;11.00;;;6.07;;
39848;SDS011;25518;47.878;15.914;2023-08-21T00:14:28;9.85;;;5.90;;
39848;SDS011;25518;47.878;15.914;2023-08-21T00:17:18;8.95;;;6.43;;
39848;SDS011;25518;47.878;15.914;2023-08-21T00:20:07;8.98;;;6.35;;
39848;SDS011;25518;47.878;15.914;2023-08-21T00:22:58;10.18;;;6.70;;
39848;SDS011;25518;47.878;15.914;2023-08-21T00:25:48;9.52;;;6.50;;
39848;SDS011;25518;47.878;15.914;2023-08-21T00:28:38;8.95;;;6.43;;
39848;SDS011;25518;47.878;15.914;2023-08-21T00:31:27;9.35;;;6.05;;
39848;SDS011;25518;47.878;15.914;2023-08-21T00:34:17;9.20;;;6.03;;
39848;SDS011;25518;47.878;15.914;2023-08-21T00:37:06;8.15;;;5.45;;
39848;SDS011;25518;47.878;15.914;2023-08-21T00:39:56;8.32;;;6.25;;
39848;SDS011;25518;47.878;15.914;2023-08-21T00:42:46;8.45;;;6.00;;
39848;SDS011;25518;47.878;15.914;2023-08-21T00:45:35;8.10;;;5.70;;
39848;SDS011;25518;47.878;15.914;2023-08-21T00:48:26;7.55;;;5.72;;
39848;SDS011;25518;47.878;15.914;2023-08-21T00:51:16;9.57;;;6.40;;
39848;SDS011;25518;47.878;15.914;2023-08-21T00:54:06;9.80;;;5.70;;
39848;SDS011;25518;47.878;15.914;2023-08-21T00:56:56;12.40;;;6.20;;
39848;SDS011;25518;47.878;15.914;2023-08-21T00:59:46;11.03;;;7.20;;
39848;SDS011;25518;47.878;15.914;2023-08-21T01:02:36;8.00;;;6.40;;
39848;SDS011;25518;47.878;15.914;2023-08-21T01:05:25;9.82;;;6.20;;
39848;SDS011;25518;47.878;15.914;2023-08-21T01:11:25;8.57;;;6.13;;
39848;SDS011;25518;47.878;15.914;2023-08-21T01:14:22;9.32;;;5.88;;
39848;SDS011;25518;47.878;15.914;2023-08-21T01:17:34;10.13;;;6.30;;
39848;SDS011;25518;47.878;15.914;2023-08-21T01:20:26;9.48;;;5.88;;
39848;SDS011;25518;47.878;15.914;2023-08-21T01:23:45;8.50;;;6.13;;
39848;SDS011;25518;47.878;15.914;2023-08-21T01:26:26;9.45;;;5.75;;
39848;SDS011;25518;47.878;15.914;2023-08-21T01:29:15;9.00;;;6.27;;
39848;SDS011;25518;47.878;15.914;2023-08-21T01:34:58;9.13;;;6.38;;
39848;SDS011;25518;47.878;15.914;2023-08-21T01:37:48;8.98;;;6.82;;
39848;SDS011;25518;47.878;15.914;2023-08-21T01:40:40;8.43;;;5.90;;
39848;SDS011;25518;47.878;15.914;2023-08-21T01:43:30;8.20;;;6.00;;
39848;SDS011;25518;47.878;15.914;2023-08-21T01:46:19;9.75;;;6.53;;
39848;SDS011;25518;47.878;15.914;2023-08-21T01:49:09;8.98;;;5.78;;
39848;SDS011;25518;47.878;15.914;2023-08-21T01:51:59;10.68;;;6.15;;
39848;SDS011;25518;47.878;15.914;2023-08-21T01:54:50;8.60;;;6.35;;
39848;SDS011;25518;47.878;15.914;2023-08-21T01:57:40;7.68;;;5.95;;
39848;SDS011;25518;47.878;15.914;2023-08-21T02:00:31;9.23;;;6.03;;
39848;SDS011;25518;47.878;15.914;2023-08-21T02:03:25;10.23;;;6.43;;
39848;SDS011;25518;47.878;15.914;2023-08-21T02:06:15;7.70;;;5.47;;
39848;SDS011;25518;47.878;15.914;2023-08-21T02:09:05;8.68;;;6.60;;
39848;SDS011;25518;47.878;15.914;2023-08-21T02:11:54;9.70;;;6.78;;
39848;SDS011;25518;47.878;15.914;2023-08-21T02:14:44;9.40;;;7.07;;
39848;SDS011;25518;47.878;15.914;2023-08-21T02:17:34;10.02;;;6.28;;
39848;SDS011;25518;47.878;15.914;2023-08-21T02:20:23;9.45;;;7.03;;
39848;SDS011;25518;47.878;15.914;2023-08-21T02:23:13;9.70;;;6.32;;
39848;SDS011;25518;47.878;15.914;2023-08-21T02:26:03;8.48;;;6.30;;
39848;SDS011;25518;47.878;15.914;2023-08-21T02:28:52;9.57;;;6.53;;
39848;SDS011;25518;47.878;15.914;2023-08-21T02:31:42;9.13;;;7.03;;
39848;SDS011;25518;47.878;15.914;2023-08-21T02:34:32;8.90;;;5.90;;
39848;SDS011;25518;47.878;15.914;2023-08-21T02:37:21;9.02;;;5.65;;
39848;SDS011;25518;47.878;15.914;2023-08-21T02:40:11;8.27;;;5.82;;
39848;SDS011;25518;47.878;15.914;2023-08-21T02:43:01;8.38;;;5.90;;
39848;SDS011;25518;47.878;15.914;2023-08-21T02:45:51;9.68;;;6.70;;
39848;SDS011;25518;47.878;15.914;2023-08-21T02:48:41;9.85;;;6.63;;
39848;SDS011;25518;47.878;15.914;2023-08-21T02:51:30;8.10;;;5.97;;
39848;SDS011;25518;47.878;15.914;2023-08-21T02:54:20;9.20;;;6.20;;
39848;SDS011;25518;47.878;15.914;2023-08-21T02:57:09;10.20;;;6.10;;
39848;SDS011;25518;47.878;15.914;2023-08-21T02:59:59;10.10;;;6.20;;
39848;SDS011;25518;47.878;15.914;2023-08-21T03:19:43;9.00;;;6.80;;
39848;SDS011;25518;47.878;15.914;2023-08-21T03:22:33;8.60;;;5.97;;
39848;SDS011;25518;47.878;15.914;2023-08-21T03:25:22;8.50;;;5.93;;
39848;SDS011;25518;47.878;15.914;2023-08-21T03:28:12;9.80;;;6.63;;
39848;SDS011;25518;47.878;15.914;2023-08-21T03:31:01;11.93;;;6.72;;
39848;SDS011;25518;47.878;15.914;2023-08-21T03:33:51;8.30;;;6.43;;
39848;SDS011;25518;47.878;15.914;2023-08-21T03:36:41;9.33;;;6.00;;
39848;SDS011;25518;47.878;15.914;2023-08-21T03:39:30;11.17;;;6.80;;
39848;SDS011;25518;47.878;15.914;2023-08-21T03:42:20;8.05;;;5.95;;
39848;SDS011;25518;47.878;15.914;2023-08-21T03:45:10;11.40;;;6.60;;
39848;SDS011;25518;47.878;15.914;2023-08-21T03:47:59;9.23;;;6.00;;
39848;SDS011;25518;47.878;15.914;2023-08-21T03:50:49;10.23;;;6.13;;
39848;SDS011;25518;47.878;15.914;2023-08-21T03:53:39;12.05;;;6.65;;
39848;SDS011;25518;47.878;15.914;2023-08-21T03:56:29;10.55;;;6.47;;
39848;SDS011;25518;47.878;15.914;2023-08-21T03:59:19;8.20;;;5.95;;
39848;SDS011;25518;47.878;15.914;2023-08-21T04:02:08;9.90;;;6.60;;
39848;SDS011;25518;47.878;15.914;2023-08-21T04:04:58;8.35;;;6.15;;
39848;SDS011;25518;47.878;15.914;2023-08-21T04:07:47;11.15;;;6.28;;
39848;SDS011;25518;47.878;15.914;2023-08-21T04:10:37;9.55;;;6.38;;
39848;SDS011;25518;47.878;15.914;2023-08-21T04:13:28;7.97;;;6.22;;
39848;SDS011;25518;47.878;15.914;2023-08-21T04:16:18;9.93;;;6.55;;
39848;SDS011;25518;47.878;15.914;2023-08-21T04:19:10;9.98;;;6.25;;
39848;SDS011;25518;47.878;15.914;2023-08-21T04:21:59;8.80;;;6.10;;
39848;SDS011;25518;47.878;15.914;2023-08-21T04:24:49;9.00;;;6.00;;
39848;SDS011;25518;47.878;15.914;2023-08-21T04:27:38;11.05;;;6.40;;
39848;SDS011;25518;47.878;15.914;2023-08-21T04:30:28;11.15;;;6.78;;
39848;SDS011;25518;47.878;15.914;2023-08-21T04:33:18;8.93;;;5.95;;
39848;SDS011;25518;47.878;15.914;2023-08-21T04:36:07;8.57;;;6.22;;
39848;SDS011;25518;47.878;15.914;2023-08-21T04:39:04;13.32;;;7.20;;
39848;SDS011;25518;47.878;15.914;2023-08-21T04:41:54;11.20;;;6.60;;
39848;SDS011;25518;47.878;15.914;2023-08-21T04:44:43;9.50;;;6.93;;
39848;SDS011;25518;47.878;15.914;2023-08-21T04:47:33;8.68;;;6.43;;
39848;SDS011;25518;47.878;15.914;2023-08-21T04:50:23;12.40;;;6.30;;
39848;SDS011;25518;47.878;15.914;2023-08-21T04:53:13;8.87;;;6.13;;
39848;SDS011;25518;47.878;15.914;2023-08-21T04:56:02;9.68;;;6.82;;
39848;SDS011;25518;47.878;15.914;2023-08-21T04:58:52;9.17;;;7.00;;
39848;SDS011;25518;47.878;15.914;2023-08-21T05:01:41;8.55;;;6.35;;
39848;SDS011;25518;47.878;15.914;2023-08-21T05:04:31;10.38;;;6.38;;
39848;SDS011;25518;47.878;15.914;2023-08-21T05:07:22;9.82;;;6.53;;
39848;SDS011;25518;47.878;15.914;2023-08-21T05:10:11;9.38;;;6.65;;
39848;SDS011;25518;47.878;15.914;2023-08-21T05:13:01;10.17;;;6.97;;
39848;SDS011;25518;47.878;15.914;2023-08-21T05:15:53;9.93;;;6.27;;
39848;SDS011;25518;47.878;15.914;2023-08-21T05:18:44;12.55;;;7.13;;
39848;SDS011;25518;47.878;15.914;2023-08-21T05:21:33;9.55;;;6.18;;
39848;SDS011;25518;47.878;15.914;2023-08-21T05:24:23;8.73;;;6.20;;
39848;SDS011;25518;47.878;15.914;2023-08-21T05:27:12;10.10;;;6.38;;
39848;SDS011;25518;47.878;15.914;2023-08-21T05:30:03;10.90;;;6.65;;
39848;SDS011;25518;47.878;15.914;2023-08-21T05:32:53;10.47;;;6.37;;
39848;SDS011;25518;47.878;15.914;2023-08-21T05:35:43;9.50;;;6.25;;
39848;SDS011;25518;47.878;15.914;2023-08-21T05:38:32;8.52;;;6.38;;
39848;SDS011;25518;47.878;15.914;2023-08-21T05:41:22;8.02;;;5.47;;
39848;SDS011;25518;47.878;15.914;2023-08-21T05:44:12;8.32;;;5.72;;
39848;SDS011;25518;47.878;15.914;2023-08-21T05:47:01;9.45;;;5.82;;
39848;SDS011;25518;47.878;15.914;2023-08-21T05:49:51;8.43;;;6.10;;
39848;SDS011;25518;47.878;15.914;2023-08-21T05:52:42;9.97;;;6.60;;
39848;SDS011;25518;47.878;15.914;2023-08-21T05:55:32;9.13;;;6.55;;
39848;SDS011;25518;47.878;15.914;2023-08-21T05:58:21;8.70;;;5.57;;
39848;SDS011;25518;47.878;15.914;2023-08-21T06:01:12;8.57;;;5.93;;
39848;SDS011;25518;47.878;15.914;2023-08-21T06:04:02;8.50;;;6.20;;
39848;SDS011;25518;47.878;15.914;2023-08-21T06:06:52;7.93;;;6.25;;
39848;SDS011;25518;47.878;15.914;2023-08-21T06:09:42;9.57;;;5.97;;
39848;SDS011;25518;47.878;15.914;2023-08-21T06:12:32;10.63;;;6.75;;
39848;SDS011;25518;47.878;15.914;2023-08-21T06:15:22;9.07;;;6.53;;
39848;SDS011;25518;47.878;15.914;2023-08-21T06:18:11;10.05;;;6.07;;
39848;SDS011;25518;47.878;15.914;2023-08-21T06:21:01;8.55;;;6.43;;
39848;SDS011;25518;47.878;15.914;2023-08-21T06:23:51;8.60;;;6.20;;
39848;SDS011;25518;47.878;15.914;2023-08-21T06:26:40;8.73;;;6.18;;
39848;SDS011;25518;47.878;15.914;2023-08-21T06:29:31;8.20;;;5.50;;
39848;SDS011;25518;47.878;15.914;2023-08-21T06:32:20;9.30;;;6.07;;
39848;SDS011;25518;47.878;15.914;2023-08-21T06:35:10;9.45;;;6.00;;
39848;SDS011;25518;47.878;15.914;2023-08-21T06:37:59;8.82;;;5.97;;
39848;SDS011;25518;47.878;15.914;2023-08-21T06:40:49;9.60;;;6.13;;
39848;SDS011;25518;47.878;15.914;2023-08-21T06:43:39;7.32;;;5.35;;
39848;SDS011;25518;47.878;15.914;2023-08-21T06:46:30;8.50;;;5.97;;
39848;SDS011;25518;47.878;15.914;2023-08-21T06:49:19;9.55;;;6.53;;
39848;SDS011;25518;47.878;15.914;2023-08-21T06:52:09;8.60;;;6.60;;
39848;SDS011;25518;47.878;15.914;2023-08-21T06:54:59;8.57;;;6.00;;
39848;SDS011;25518;47.878;15.914;2023-08-21T06:57:48;8.75;;;6.30;;
39848;SDS011;25518;47.878;15.914;2023-08-21T07:00:38;8.00;;;6.00;;
39848;SDS011;25518;47.878;15.914;2023-08-21T07:03:28;9.05;;;6.43;;
39848;SDS011;25518;47.878;15.914;2023-08-21T07:06:17;12.57;;;6.60;;
39848;SDS011;25518;47.878;15.914;2023-08-21T07:09:07;9.43;;;5.72;;
39848;SDS011;25518;47.878;15.914;2023-08-21T07:11:57;9.60;;;6.40;;
39848;SDS011;25518;47.878;15.914;2023-08-21T07:14:47;9.27;;;6.13;;
39848;SDS011;25518;47.878;15.914;2023-08-21T07:17:37;9.18;;;6.13;;
39848;SDS011;25518;47.878;15.914;2023-08-21T07:20:26;8.43;;;6.57;;
39848;SDS011;25518;47.878;15.914;2023-08-21T07:23:16;9.27;;;6.33;;
39848;SDS011;25518;47.878;15.914;2023-08-21T07:26:06;8.10;;;5.90;;
39848;SDS011;25518;47.878;15.914;2023-08-21T07:28:57;8.40;;;6.03;;
39848;SDS011;25518;47.878;15.914;2023-08-21T07:31:47;7.93;;;5.90;;
39848;SDS011;25518;47.878;15.914;2023-08-21T07:34:36;8.03;;;5.67;;
39848;SDS011;25518;47.878;15.914;2023-08-21T07:37:26;9.40;;;6.43;;
39848;SDS011;25518;47.878;15.914;2023-08-21T07:40:15;8.85;;;5.47;;
39848;SDS011;25518;47.878;15.914;2023-08-21T07:43:05;8.10;;;5.40;;
39848;SDS011;25518;47.878;15.914;2023-08-21T07:45:54;8.18;;;5.60;;
39848;SDS011;25518;47.878;15.914;2023-08-21T07:48:44;8.98;;;5.35;;
39848;SDS011;25518;47.878;15.914;2023-08-21T07:51:35;8.45;;;5.43;;
39848;SDS011;25518;47.878;15.914;2023-08-21T07:54:25;9.55;;;5.65;;
39848;SDS011;25518;47.878;15.914;2023-08-21T07:57:14;9.35;;;5.35;;
39848;SDS011;25518;47.878;15.914;2023-08-21T08:00:04;7.40;;;5.13;;
39848;SDS011;25518;47.878;15.914;2023-08-21T08:02:57;8.13;;;5.53;;
39848;SDS011;25518;47.878;15.914;2023-08-21T08:05:46;8.15;;;5.38;;
39848;SDS011;25518;47.878;15.914;2023-08-21T08:08:36;9.70;;;5.18;;
39848;SDS011;25518;47.878;15.914;2023-08-21T08:11:26;7.55;;;4.72;;
39848;SDS011;25518;47.878;15.914;2023-08-21T08:14:16;7.07;;;4.93;;
39848;SDS011;25518;47.878;15.914;2023-08-21T08:17:05;7.80;;;5.63;;
39848;SDS011;25518;47.878;15.914;2023-08-21T08:19:55;6.78;;;4.78;;
39848;SDS011;25518;47.878;15.914;2023-08-21T08:22:45;9.43;;;5.13;;
39848;SDS011;25518;47.878;15.914;2023-08-21T08:25:34;7.87;;;5.50;;
39848;SDS011;25518;47.878;15.914;2023-08-21T08:28:24;8.48;;;5.90;;
39848;SDS011;25518;47.878;15.914;2023-08-21T08:31:14;12.63;;;6.30;;
39848;SDS011;25518;47.878;15.914;2023-08-21T08:34:06;9.37;;;6.63;;
39848;SDS011;25518;47.878;15.914;2023-08-21T08:36:55;9.68;;;6.03;;
39848;SDS011;25518;47.878;15.914;2023-08-21T08:39:46;9.45;;;6.07;;
39848;SDS011;25518;47.878;15.914;2023-08-21T08:42:36;9.57;;;6.38;;
39848;SDS011;25518;47.878;15.914;2023-08-21T08:45:28;7.72;;;5.25;;
39848;SDS011;25518;47.878;15.914;2023-08-21T08:48:20;7.43;;;5.30;;
39848;SDS011;25518;47.878;15.914;2023-08-21T08:51:10;7.53;;;5.75;;
39848;SDS011;25518;47.878;15.914;2023-08-21T08:54:01;10.20;;;5.80;;
39848;SDS011;25518;47.878;15.914;2023-08-21T08:56:52;8.70;;;5.50;;
39848;SDS011;25518;47.878;15.914;2023-08-21T08:59:43;7.28;;;4.88;;
39848;SDS011;25518;47.878;15.914;2023-08-21T09:02:32;6.82;;;4.65;;
39848;SDS011;25518;47.878;15.914;2023-08-21T09:05:22;7.30;;;4.88;;
39848;SDS011;25518;47.878;15.914;2023-08-21T09:08:12;8.88;;;4.88;;
39848;SDS011;25518;47.878;15.914;2023-08-21T09:11:02;6.07;;;4.47;;
39848;SDS011;25518;47.878;15.914;2023-08-21T09:13:53;6.10;;;4.65;;
39848;SDS011;25518;47.878;15.914;2023-08-21T09:16:58;5.80;;;4.57;;
39848;SDS011;25518;47.878;15.914;2023-08-21T09:19:53;8.55;;;4.72;;
39848;SDS011;25518;47.878;15.914;2023-08-21T09:22:44;6.90;;;4.27;;
39848;SDS011;25518;47.878;15.914;2023-08-21T09:25:45;7.77;;;4.53;;
39848;SDS011;25518;47.878;15.914;2023-08-21T09:28:36;8.30;;;4.78;;
39848;SDS011;25518;47.878;15.914;2023-08-21T09:31:30;6.97;;;4.30;;
39848;SDS011;25518;47.878;15.914;2023-08-21T09:34:21;6.07;;;4.50;;
39848;SDS011;25518;47.878;15.914;2023-08-21T09:37:10;6.30;;;4.00;;
39848;SDS011;25518;47.878;15.914;2023-08-21T09:40:01;6.30;;;3.85;;
39848;SDS011;25518;47.878;15.914;2023-08-21T09:42:56;5.40;;;4.03;;
39848;SDS011;25518;47.878;15.914;2023-08-21T09:45:46;7.18;;;4.28;;
39848;SDS011;25518;47.878;15.914;2023-08-21T09:48:36;7.22;;;3.92;;
39848;SDS011;25518;47.878;15.914;2023-08-21T09:51:27;6.03;;;4.10;;
39848;SDS011;25518;47.878;15.914;2023-08-21T09:54:17;6.65;;;4.07;;
39848;SDS011;25518;47.878;15.914;2023-08-21T09:57:07;7.05;;;4.15;;
39848;SDS011;25518;47.878;15.914;2023-08-21T09:59:57;6.05;;;3.80;;
39848;SDS011;25518;47.878;15.914;2023-08-21T10:02:51;5.90;;;3.53;;
39848;SDS011;25518;47.878;15.914;2023-08-21T10:05:42;5.30;;;3.40;;
39848;SDS011;25518;47.878;15.914;2023-08-21T10:08:32;5.40;;;3.53;;
39848;SDS011;25518;47.878;15.914;2023-08-21T10:11:29;6.00;;;3.47;;
39848;SDS011;25518;47.878;15.914;2023-08-21T10:14:20;7.25;;;3.78;;
39848;SDS011;25518;47.878;15.914;2023-08-21T10:17:12;5.00;;;3.20;;
39848;SDS011;25518;47.878;15.914;2023-08-21T10:20:03;5.00;;;2.88;;
39848;SDS011;25518;47.878;15.914;2023-08-21T10:22:55;6.10;;;3.33;;
39848;SDS011;25518;47.878;15.914;2023-08-21T10:25:55;4.40;;;2.80;;
39848;SDS011;25518;47.878;15.914;2023-08-21T10:29:02;4.05;;;2.92;;
39848;SDS011;25518;47.878;15.914;2023-08-21T10:31:59;4.22;;;2.20;;
39848;SDS011;25518;47.878;15.914;2023-08-21T10:34:52;3.28;;;2.22;;
39848;SDS011;25518;47.878;15.914;2023-08-21T10:38:13;3.65;;;2.40;;
39848;SDS011;25518;47.878;15.914;2023-08-21T10:41:03;6.85;;;2.58;;
39848;SDS011;25518;47.878;15.914;2023-08-21T10:43:55;6.07;;;2.30;;
39848;SDS011;25518;47.878;15.914;2023-08-21T10:46:52;4.00;;;2.83;;
39848;SDS011;25518;47.878;15.914;2023-08-21T10:49:44;3.92;;;2.55;;
39848;SDS011;25518;47.878;15.914;2023-08-21T10:55:28;4.45;;;2.40;;
39848;SDS011;25518;47.878;15.914;2023-08-21T10:58:18;4.85;;;2.38;;
39848;SDS011;25518;47.878;15.914;2023-08-21T11:01:08;4.00;;;2.47;;
39848;SDS011;25518;47.878;15.914;2023-08-21T11:03:58;4.43;;;2.88;;
39848;SDS011;25518;47.878;15.914;2023-08-21T11:06:50;4.78;;;2.70;;
39848;SDS011;25518;47.878;15.914;2023-08-21T11:09:40;5.93;;;3.03;;
39848;SDS011;25518;47.878;15.914;2023-08-21T11:12:31;7.85;;;2.85;;
39848;SDS011;25518;47.878;15.914;2023-08-21T11:15:21;4.90;;;2.83;;
39848;SDS011;25518;47.878;15.914;2023-08-21T11:18:11;4.32;;;2.65;;
39848;SDS011;25518;47.878;15.914;2023-08-21T11:21:09;4.40;;;2.70;;
39848;SDS011;25518;47.878;15.914;2023-08-21T11:24:00;5.88;;;2.83;;
39848;SDS011;25518;47.878;15.914;2023-08-21T11:26:50;6.10;;;2.70;;
39848;SDS011;25518;47.878;15.914;2023-08-21T11:29:40;5.32;;;3.35;;
39848;SDS011;25518;47.878;15.914;2023-08-21T11:32:34;5.95;;;3.00;;
39848;SDS011;25518;47.878;15.914;2023-08-21T11:35:24;4.63;;;2.60;;
39848;SDS011;25518;47.878;15.914;2023-08-21T11:38:16;4.93;;;2.85;;
39848;SDS011;25518;47.878;15.914;2023-08-21T11:41:07;4.80;;;3.03;;
39848;SDS011;25518;47.878;15.914;2023-08-21T11:44:04;6.60;;;3.30;;
39848;SDS011;25518;47.878;15.914;2023-08-21T11:46:54;4.75;;;3.25;;
39848;SDS011;25518;47.878;15.914;2023-08-21T11:49:44;5.10;;;3.17;;
39848;SDS011;25518;47.878;15.914;2023-08-21T11:52:36;4.88;;;3.17;;
39848;SDS011;25518;47.878;15.914;2023-08-21T11:55:27;5.37;;;2.93;;
39848;SDS011;25518;47.878;15.914;2023-08-21T11:58:17;5.35;;;3.30;;
39848;SDS011;25518;47.878;15.914;2023-08-21T12:01:08;5.80;;;3.28;;
39848;SDS011;25518;47.878;15.914;2023-08-21T12:03:58;4.80;;;3.25;;
39848;SDS011;25518;47.878;15.914;2023-08-21T12:06:48;6.72;;;3.08;;
39848;SDS011;25518;47.878;15.914;2023-08-21T12:09:38;5.05;;;3.08;;
39848;SDS011;25518;47.878;15.914;2023-08-21T12:12:28;5.57;;;3.13;;
39848;SDS011;25518;47.878;15.914;2023-08-21T12:15:18;5.00;;;3.20;;
39848;SDS011;25518;47.878;15.914;2023-08-21T12:18:09;5.03;;;2.97;;
39848;SDS011;25518;47.878;15.914;2023-08-21T12:20:58;4.35;;;2.90;;
39848;SDS011;25518;47.878;15.914;2023-08-21T12:23:48;4.72;;;2.97;;
39848;SDS011;25518;47.878;15.914;2023-08-21T12:26:37;5.97;;;3.22;;
39848;SDS011;25518;47.878;15.914;2023-08-21T12:29:27;4.50;;;3.10;;
39848;SDS011;25518;47.878;15.914;2023-08-21T12:32:16;4.85;;;2.75;;
39848;SDS011;25518;47.878;15.914;2023-08-21T12:35:06;4.70;;;3.10;;
39848;SDS011;25518;47.878;15.914;2023-08-21T12:38:00;5.47;;;3.30;;
39848;SDS011;25518;47.878;15.914;2023-08-21T12:40:54;4.47;;;2.95;;
39848;SDS011;25518;47.878;15.914;2023-08-21T12:43:43;5.13;;;3.13;;
39848;SDS011;25518;47.878;15.914;2023-08-21T12:46:33;4.18;;;2.90;;
39848;SDS011;25518;47.878;15.914;2023-08-21T12:49:23;5.77;;;3.50;;
39848;SDS011;25518;47.878;15.914;2023-08-21T12:52:12;5.43;;;3.15;;
39848;SDS011;25518;47.878;15.914;2023-08-21T12:55:02;5.38;;;3.00;;
39848;SDS011;25518;47.878;15.914;2023-08-21T12:57:55;4.10;;;2.97;;
39848;SDS011;25518;47.878;15.914;2023-08-21T13:00:45;6.82;;;3.08;;
39848;SDS011;25518;47.878;15.914;2023-08-21T13:03:35;5.40;;;3.13;;
39848;SDS011;25518;47.878;15.914;2023-08-21T13:06:25;4.53;;;3.03;;
39848;SDS011;25518;47.878;15.914;2023-08-21T13:09:15;5.07;;;3.17;;
39848;SDS011;25518;47.878;15.914;2023-08-21T13:12:04;7.03;;;3.20;;
39848;SDS011;25518;47.878;15.914;2023-08-21T13:14:54;4.30;;;2.92;;
39848;SDS011;25518;47.878;15.914;2023-08-21T13:17:43;5.03;;;3.22;;
39848;SDS011;25518;47.878;15.914;2023-08-21T13:20:33;5.07;;;2.80;;
39848;SDS011;25518;47.878;15.914;2023-08-21T13:23:23;5.82;;;3.08;;
39848;SDS011;25518;47.878;15.914;2023-08-21T13:26:13;6.47;;;3.30;;
39848;SDS011;25518;47.878;15.914;2023-08-21T13:29:03;6.30;;;2.85;;
39848;SDS011;25518;47.878;15.914;2023-08-21T13:31:53;4.33;;;2.97;;
39848;SDS011;25518;47.878;15.914;2023-08-21T13:34:42;6.82;;;3.22;;
39848;SDS011;25518;47.878;15.914;2023-08-21T13:37:31;3.92;;;2.83;;
39848;SDS011;25518;47.878;15.914;2023-08-21T13:40:21;5.50;;;3.10;;
39848;SDS011;25518;47.878;15.914;2023-08-21T13:43:12;8.73;;;3.25;;
39848;SDS011;25518;47.878;15.914;2023-08-21T13:46:02;5.00;;;2.88;;
39848;SDS011;25518;47.878;15.914;2023-08-21T13:48:53;4.95;;;2.80;;
39848;SDS011;25518;47.878;15.914;2023-08-21T13:51:42;5.68;;;3.10;;
39848;SDS011;25518;47.878;15.914;2023-08-21T13:54:32;8.63;;;3.03;;
39848;SDS011;25518;47.878;15.914;2023-08-21T13:57:22;4.93;;;3.10;;
39848;SDS011;25518;47.878;15.914;2023-08-21T14:00:12;4.55;;;2.78;;
39848;SDS011;25518;47.878;15.914;2023-08-21T14:03:02;4.07;;;2.67;;
39848;SDS011;25518;47.878;15.914;2023-08-21T14:05:52;4.37;;;2.67;;
39848;SDS011;25518;47.878;15.914;2023-08-21T14:08:41;6.20;;;3.30;;
39848;SDS011;25518;47.878;15.914;2023-08-21T14:11:32;6.43;;;3.00;;
39848;SDS011;25518;47.878;15.914;2023-08-21T14:14:21;4.95;;;2.60;;
39848;SDS011;25518;47.878;15.914;2023-08-21T14:17:11;5.47;;;3.17;;
39848;SDS011;25518;47.878;15.914;2023-08-21T14:20:01;4.88;;;2.90;;
39848;SDS011;25518;47.878;15.914;2023-08-21T14:22:52;4.30;;;3.10;;
39848;SDS011;25518;47.878;15.914;2023-08-21T14:25:41;4.43;;;2.78;;
39848;SDS011;25518;47.878;15.914;2023-08-21T14:28:31;6.18;;;3.58;;
39848;SDS011;25518;47.878;15.914;2023-08-21T14:31:21;5.07;;;2.97;;
39848;SDS011;25518;47.878;15.914;2023-08-21T14:34:11;5.00;;;3.25;;
39848;SDS011;25518;47.878;15.914;2023-08-21T14:37:00;4.97;;;3.17;;
39848;SDS011;25518;47.878;15.914;2023-08-21T14:39:52;6.28;;;3.33;;
39848;SDS011;25518;47.878;15.914;2023-08-21T14:42:42;6.03;;;3.00;;
39848;SDS011;25518;47.878;15.914;2023-08-21T14:45:32;5.68;;;3.45;;
39848;SDS011;25518;47.878;15.914;2023-08-21T14:48:21;4.78;;;3.13;;
39848;SDS011;25518;47.878;15.914;2023-08-21T14:51:11;5.72;;;3.15;;
39848;SDS011;25518;47.878;15.914;2023-08-21T14:54:00;6.53;;;3.30;;
39848;SDS011;25518;47.878;15.914;2023-08-21T14:56:50;6.95;;;3.50;;
39848;SDS011;25518;47.878;15.914;2023-08-21T14:59:39;4.68;;;3.50;;
39848;SDS011;25518;47.878;15.914;2023-08-21T15:02:29;6.72;;;3.90;;
39848;SDS011;25518;47.878;15.914;2023-08-21T15:05:19;4.13;;;2.75;;
39848;SDS011;25518;47.878;15.914;2023-08-21T15:08:10;4.50;;;2.83;;
39848;SDS011;25518;47.878;15.914;2023-08-21T15:11:00;5.45;;;3.08;;
39848;SDS011;25518;47.878;15.914;2023-08-21T15:13:50;6.70;;;3.38;;
39848;SDS011;25518;47.878;15.914;2023-08-21T15:16:39;5.85;;;3.63;;
39848;SDS011;25518;47.878;15.914;2023-08-21T15:19:29;4.83;;;3.00;;
39848;SDS011;25518;47.878;15.914;2023-08-21T15:22:19;8.02;;;3.72;;
39848;SDS011;25518;47.878;15.914;2023-08-21T15:25:10;5.93;;;3.57;;
39848;SDS011;25518;47.878;15.914;2023-08-21T15:28:00;4.87;;;3.13;;
39848;SDS011;25518;47.878;15.914;2023-08-21T15:30:50;5.80;;;3.30;;
39848;SDS011;25518;47.878;15.914;2023-08-21T15:33:39;5.03;;;3.45;;
39848;SDS011;25518;47.878;15.914;2023-08-21T15:36:29;4.95;;;3.40;;
39848;SDS011;25518;47.878;15.914;2023-08-21T15:39:19;8.07;;;3.23;;
39848;SDS011;25518;47.878;15.914;2023-08-21T15:42:08;4.97;;;2.88;;
39848;SDS011;25518;47.878;15.914;2023-08-21T15:44:58;4.13;;;2.90;;
39848;SDS011;25518;47.878;15.914;2023-08-21T15:47:48;4.35;;;3.05;;
39848;SDS011;25518;47.878;15.914;2023-08-21T15:50:37;7.72;;;3.88;;
39848;SDS011;25518;47.878;15.914;2023-08-21T15:53:27;6.60;;;3.63;;
39848;SDS011;25518;47.878;15.914;2023-08-21T15:56:17;6.28;;;3.58;;
39848;SDS011;25518;47.878;15.914;2023-08-21T15:59:06;4.70;;;3.33;;
39848;SDS011;25518;47.878;15.914;2023-08-21T16:01:57;6.97;;;3.40;;
39848;SDS011;25518;47.878;15.914;2023-08-21T16:04:47;7.30;;;3.95;;
39848;SDS011;25518;47.878;15.914;2023-08-21T16:07:36;6.97;;;3.70;;
39848;SDS011;25518;47.878;15.914;2023-08-21T16:10:26;5.38;;;3.30;;
39848;SDS011;25518;47.878;15.914;2023-08-21T16:13:16;6.50;;;3.47;;
39848;SDS011;25518;47.878;15.914;2023-08-21T16:16:06;6.22;;;3.70;;
39848;SDS011;25518;47.878;15.914;2023-08-21T16:18:55;6.40;;;3.67;;
39848;SDS011;25518;47.878;15.914;2023-08-21T16:21:45;5.20;;;3.70;;
39848;SDS011;25518;47.878;15.914;2023-08-21T16:24:36;6.97;;;3.70;;
39848;SDS011;25518;47.878;15.914;2023-08-21T16:27:26;7.68;;;3.47;;
39848;SDS011;25518;47.878;15.914;2023-08-21T16:30:16;6.40;;;3.28;;
39848;SDS011;25518;47.878;15.914;2023-08-21T16:33:06;5.33;;;3.70;;
39848;SDS011;25518;47.878;15.914;2023-08-21T16:35:56;7.32;;;3.83;;
39848;SDS011;25518;47.878;15.914;2023-08-21T16:38:45;4.97;;;3.47;;
39848;SDS011;25518;47.878;15.914;2023-08-21T16:41:35;5.78;;;3.38;;
39848;SDS011;25518;47.878;15.914;2023-08-21T16:44:25;6.80;;;3.83;;
39848;SDS011;25518;47.878;15.914;2023-08-21T16:47:14;5.28;;;3.70;;
39848;SDS011;25518;47.878;15.914;2023-08-21T16:50:04;7.87;;;3.70;;
39848;SDS011;25518;47.878;15.914;2023-08-21T16:52:55;7.20;;;3.60;;
39848;SDS011;25518;47.878;15.914;2023-08-21T16:55:45;8.48;;;3.75;;
39848;SDS011;25518;47.878;15.914;2023-08-21T16:58:34;5.75;;;3.67;;
39848;SDS011;25518;47.878;15.914;2023-08-21T17:01:24;7.80;;;3.70;;
39848;SDS011;25518;47.878;15.914;2023-08-21T17:04:14;6.32;;;4.20;;
39848;SDS011;25518;47.878;15.914;2023-08-21T17:07:04;5.97;;;3.60;;
39848;SDS011;25518;47.878;15.914;2023-08-21T17:09:53;7.88;;;3.67;;
39848;SDS011;25518;47.878;15.914;2023-08-21T17:12:43;5.55;;;3.55;;
39848;SDS011;25518;47.878;15.914;2023-08-21T17:15:35;6.55;;;3.85;;